Time;durP1;ratioP1;P1;durP2;ratioP2;P2;SDS_P1;SDS_P2;PMS_P1;PMS_P2;Temp;Humidity;BMP_temperature;BMP_pressure;BME280_temperature;BME280_humidity;BME280_pressure;Samples;Min_cycle;Max_cycle;Signal;HPM_P1;HPM_P2
2022/03/14 00:01:15;;;;;;;0.00;0.00;;;;;;;9.52;80.88;98935.88;5068516;28;20205;-51
2022/03/14 00:03:45;;;;;;;0.00;0.00;;;;;;;9.54;80.85;98933.91;5067719;28;20722;-52
2022/03/14 00:06:12;;;;;;;0.00;0.00;;;;;;;9.55;80.33;98935.56;5068011;28;20182;-50
2022/03/14 00:08:44;;;;;;;0.00;0.00;;;;;;;9.50;81.59;98948.22;5066934;28;20783;-48
2022/03/14 00:11:14;;;;;;;0.00;0.00;;;;;;;9.53;81.17;98947.94;5068295;28;20218;-50
2022/03/14 00:13:46;;;;;;;0.00;0.00;;;;;;;9.49;81.93;98962.19;5068271;28;20189;-49
2022/03/14 00:16:20;;;;;;;0.00;0.00;;;;;;;9.51;82.16;98969.88;5067793;28;20199;-47
2022/03/14 00:18:49;;;;;;;0.00;0.00;;;;;;;9.43;83.28;98975.75;5068113;28;20266;-49
2022/03/14 00:21:16;;;;;;;0.00;0.00;;;;;;;9.40;83.49;98983.84;5067667;28;20201;-50
2022/03/14 00:23:44;;;;;;;0.00;0.00;;;;;;;9.39;83.43;98985.63;5067815;28;20190;-51
2022/03/14 00:26:11;;;;;;;0.00;0.00;;;;;;;9.35;82.25;98997.25;5067728;28;20186;-50
2022/03/14 00:28:38;;;;;;;0.00;0.00;;;;;;;9.32;82.58;99001.94;5067391;28;20199;-51
2022/03/14 00:31:05;;;;;;;0.00;0.00;;;;;;;9.24;82.54;98997.38;5066548;28;20223;-51
2022/03/14 00:33:31;;;;;;;0.00;0.00;;;;;;;9.23;82.84;99001.78;5067529;28;20546;-49
2022/03/14 00:35:58;;;;;;;0.00;0.00;;;;;;;9.24;82.83;99007.78;5067366;28;20188;-50
2022/03/14 00:38:25;;;;;;;0.00;0.00;;;;;;;9.17;84.36;99010.13;5068013;28;20213;-48
2022/03/14 00:40:54;;;;;;;0.00;0.00;;;;;;;9.18;84.75;99016.13;5067444;28;20251;-51
2022/03/14 00:43:20;;;;;;;0.00;0.00;;;;;;;9.18;85.01;99018.72;5067749;28;20190;-47
2022/03/14 00:45:47;;;;;;;0.00;0.00;;;;;;;9.08;86.18;99021.31;5067628;28;20286;-51
2022/03/14 00:48:14;;;;;;;0.00;0.00;;;;;;;9.10;85.15;99029.81;5067701;28;20907;-51
2022/03/14 00:50:40;;;;;;;0.00;0.00;;;;;;;9.04;85.01;99033.75;5057902;28;20221;-48
2022/03/14 00:53:07;;;;;;;0.00;0.00;;;;;;;9.00;86.90;99042.81;5067377;28;20685;-49
2022/03/14 00:55:34;;;;;;;0.00;0.00;;;;;;;8.95;88.21;99048.41;5067247;28;20654;-52
2022/03/14 00:58:02;;;;;;;0.00;0.00;;;;;;;8.91;88.11;99051.41;5067866;28;20188;-48
2022/03/14 01:00:29;;;;;;;0.00;0.00;;;;;;;8.84;90.31;99053.69;5068298;28;20251;-47
2022/03/14 01:02:56;;;;;;;0.00;0.00;;;;;;;8.82;90.51;99063.41;5067371;28;20183;-45
2022/03/14 01:05:22;;;;;;;0.00;0.00;;;;;;;8.77;90.21;99069.00;5067018;28;20190;-50
2022/03/14 01:07:49;;;;;;;0.00;0.00;;;;;;;8.74;91.05;99077.06;5068072;28;20192;-50
2022/03/14 01:10:15;;;;;;;0.00;0.00;;;;;;;8.76;91.84;99102.97;5067596;28;20706;-49
2022/03/14 01:12:42;;;;;;;0.00;0.00;;;;;;;8.52;90.71;99106.63;5067326;28;20701;-47
2022/03/14 01:15:11;;;;;;;0.00;0.00;;;;;;;8.46;89.55;99096.72;5067139;28;20192;-48
2022/03/14 01:17:37;;;;;;;0.00;0.00;;;;;;;8.39;89.21;99093.78;5067012;28;20194;-50
2022/03/14 01:20:06;;;;;;;0.00;0.00;;;;;;;8.31;89.74;99103.97;5051470;28;20218;-50
2022/03/14 01:22:34;;;;;;;0.00;0.00;;;;;;;8.31;90.29;99098.78;5048341;28;20709;-47
2022/03/14 01:25:01;;;;;;;0.00;0.00;;;;;;;8.28;90.74;99103.28;5047927;28;20242;-52
2022/03/14 01:27:28;;;;;;;0.00;0.00;;;;;;;8.22;91.33;99100.34;5049743;28;20207;-48
2022/03/14 01:29:55;;;;;;;0.00;0.00;;;;;;;8.21;92.23;99112.53;5050178;28;20198;-47
2022/03/14 01:32:24;;;;;;;0.00;0.00;;;;;;;8.23;91.06;99120.22;5050063;28;20296;-47
2022/03/14 01:34:54;;;;;;;0.00;0.00;;;;;;;8.15;93.02;99133.81;5050005;28;20201;-49
2022/03/14 01:37:21;;;;;;;0.00;0.00;;;;;;;8.13;92.92;99139.16;5050375;28;20536;-50
2022/03/14 01:39:47;;;;;;;0.00;0.00;;;;;;;8.11;93.50;99127.19;5051175;28;20472;-52
2022/03/14 01:42:17;;;;;;;0.00;0.00;;;;;;;8.12;94.60;99126.25;5053925;28;20191;-47
2022/03/14 01:44:46;;;;;;;0.00;0.00;;;;;;;8.07;95.15;99128.41;5053463;28;20189;-46
2022/03/14 01:47:14;;;;;;;0.00;0.00;;;;;;;8.16;93.95;99134.66;5054214;28;20270;-49
2022/03/14 01:49:43;;;;;;;0.00;0.00;;;;;;;8.12;93.58;99139.25;5052963;28;20195;-50
2022/03/14 01:52:10;;;;;;;0.00;0.00;;;;;;;8.08;93.87;99137.84;5053658;28;20199;-49
2022/03/14 01:54:38;;;;;;;0.00;0.00;;;;;;;8.00;94.59;99146.28;5053611;28;20196;-47
2022/03/14 01:57:05;;;;;;;0.00;0.00;;;;;;;7.92;96.12;99141.69;5053825;28;20272;-47
2022/03/14 01:59:33;;;;;;;0.00;0.00;;;;;;;7.94;95.66;99146.75;5053919;28;20230;-47
2022/03/14 02:02:16;;;;;;;0.00;0.00;;;;;;;8.03;95.82;99146.03;5053604;28;20183;-48
2022/03/14 02:04:48;;;;;;;0.00;0.00;;;;;;;7.95;96.03;99141.41;5052069;28;20670;-46
2022/03/14 02:07:15;;;;;;;0.00;0.00;;;;;;;7.97;95.94;99149.09;5053783;28;20206;-51
2022/03/14 02:09:42;;;;;;;0.00;0.00;;;;;;;7.90;96.66;99153.13;5053550;28;20217;-49
2022/03/14 02:12:10;;;;;;;0.00;0.00;;;;;;;7.93;96.39;99165.91;5059022;28;20210;-47
2022/03/14 02:14:39;;;;;;;0.00;0.00;;;;;;;7.96;96.11;99161.25;5067357;28;20211;-48
2022/03/14 02:17:08;;;;;;;0.00;0.00;;;;;;;8.02;95.79;99174.72;5062607;28;20198;-51
2022/03/14 02:19:35;;;;;;;0.00;0.00;;;;;;;7.91;96.08;99168.63;5053126;28;20211;-48
2022/03/14 02:22:04;;;;;;;0.00;0.00;;;;;;;7.89;96.58;99172.28;5052109;28;20327;-49
2022/03/14 02:24:32;;;;;;;0.00;0.00;;;;;;;7.86;95.89;99175.97;5052151;28;20182;-50
2022/03/14 02:26:59;;;;;;;0.00;0.00;;;;;;;7.87;96.78;99184.56;5052587;28;20248;-49
2022/03/14 02:29:26;;;;;;;0.00;0.00;;;;;;;7.84;96.12;99177.84;5052530;28;20562;-47
2022/03/14 02:31:53;;;;;;;0.00;0.00;;;;;;;7.86;96.52;99182.91;5051824;28;20210;-48
2022/03/14 02:34:23;;;;;;;0.00;0.00;;;;;;;7.80;98.98;99195.44;5052324;28;20201;-47
2022/03/14 02:36:50;;;;;;;0.00;0.00;;;;;;;7.83;98.62;99197.00;5051891;28;20197;-48
2022/03/14 02:39:18;;;;;;;0.00;0.00;;;;;;;7.86;97.56;99199.34;5052379;28;20224;-50
2022/03/14 02:41:45;;;;;;;0.00;0.00;;;;;;;7.83;95.85;99197.81;5052545;28;20202;-47
2022/03/14 02:44:13;;;;;;;0.00;0.00;;;;;;;7.80;96.75;99203.25;5052310;28;20763;-49
2022/03/14 02:46:41;;;;;;;0.00;0.00;;;;;;;7.81;96.38;99212.69;5052690;28;20225;-51
2022/03/14 02:49:10;;;;;;;0.00;0.00;;;;;;;7.78;96.92;99218.13;5052386;28;20194;-48
2022/03/14 02:51:38;;;;;;;0.00;0.00;;;;;;;7.81;96.65;99220.47;5051217;28;20205;-48
2022/03/14 02:54:05;;;;;;;0.00;0.00;;;;;;;7.80;96.75;99234.44;5051281;28;20186;-48
2022/03/14 02:56:34;;;;;;;0.00;0.00;;;;;;;7.78;95.32;99225.09;5051647;28;20225;-50
2022/03/14 02:59:01;;;;;;;0.00;0.00;;;;;;;7.78;96.69;99230.31;5051705;28;20194;-50
2022/03/14 03:01:27;;;;;;;0.00;0.00;;;;;;;7.70;96.60;99246.47;5052075;28;20204;-51
2022/03/14 03:03:56;;;;;;;0.00;0.00;;;;;;;7.68;97.10;99235.34;5051556;28;20191;-47
2022/03/14 03:06:23;;;;;;;0.00;0.00;;;;;;;7.68;97.57;99236.19;5052311;28;20276;-48
2022/03/14 03:08:50;;;;;;;0.00;0.00;;;;;;;7.71;95.47;99240.31;5050759;28;20649;-49
2022/03/14 03:11:17;;;;;;;0.00;0.00;;;;;;;7.74;96.00;99247.88;5051970;28;20202;-48
2022/03/14 03:13:46;;;;;;;0.00;0.00;;;;;;;7.72;95.92;99260.16;5051786;28;20214;-47
2022/03/14 03:16:17;;;;;;;0.00;0.00;;;;;;;7.74;92.80;99260.06;5051476;28;20593;-47
2022/03/14 03:18:45;;;;;;;0.00;0.00;;;;;;;7.72;91.68;99267.97;5051859;28;20641;-47
2022/03/14 03:21:13;;;;;;;0.00;0.00;;;;;;;7.71;92.77;99266.31;5051916;28;20201;-48
2022/03/14 03:23:40;;;;;;;0.00;0.00;;;;;;;7.60;91.70;99261.09;5051212;28;20181;-47
2022/03/14 03:26:07;;;;;;;0.00;0.00;;;;;;;7.62;91.10;99267.84;5051322;28;20193;-47
2022/03/14 03:28:36;;;;;;;0.00;0.00;;;;;;;7.57;92.40;99275.16;5051431;28;20201;-49
2022/03/14 03:31:08;;;;;;;0.00;0.00;;;;;;;7.62;90.89;99278.25;5052051;28;20276;-47
2022/03/14 03:33:36;;;;;;;0.00;0.00;;;;;;;7.50;92.52;99274.78;5051413;28;20243;-49
2022/03/14 03:36:03;;;;;;;0.00;0.00;;;;;;;7.48;92.36;99283.66;5051040;28;20193;-51
2022/03/14 03:38:30;;;;;;;0.00;0.00;;;;;;;7.44;93.46;99295.19;5060704;28;20247;-49
2022/03/14 03:40:57;;;;;;;0.00;0.00;;;;;;;7.37;92.88;99300.84;5059291;28;20221;-48
2022/03/14 03:43:24;;;;;;;0.00;0.00;;;;;;;7.41;91.80;99308.41;5070697;28;20261;-48
2022/03/14 03:45:51;;;;;;;0.00;0.00;;;;;;;7.39;91.96;99300.75;5062919;28;20180;-48
2022/03/14 03:48:20;;;;;;;1.23;0.70;;;;;;;7.34;92.26;99302.88;5071012;28;20762;-46
2022/03/14 03:50:47;;;;;;;1.27;0.70;;;;;;;7.30;93.44;99317.81;5071128;28;20246;-48
2022/03/14 03:53:15;;;;;;;1.30;0.80;;;;;;;7.27;92.70;99312.84;5070858;28;20749;-48
2022/03/14 03:55:41;;;;;;;1.07;0.90;;;;;;;7.24;92.53;99323.47;5070320;28;20318;-46
2022/03/14 03:58:09;;;;;;;1.43;0.90;;;;;;;7.28;91.93;99324.09;5070981;28;20212;-48
2022/03/14 04:00:36;;;;;;;0.87;0.60;;;;;;;7.26;91.51;99339.75;5071168;28;20690;-49
2022/03/14 04:03:03;;;;;;;2.13;0.90;;;;;;;7.26;89.82;99326.78;5070122;28;20372;-46
2022/03/14 04:05:31;;;;;;;0.87;0.67;;;;;;;7.20;90.78;99337.63;5070654;28;20183;-48
2022/03/14 04:07:59;;;;;;;1.43;0.70;;;;;;;7.16;90.40;99334.44;5070938;28;20195;-48
2022/03/14 04:10:29;;;;;;;1.13;0.70;;;;;;;7.14;90.98;99357.06;5071378;28;20204;-46
2022/03/14 04:12:59;;;;;;;1.20;0.70;;;;;;;7.18;90.15;99363.69;5070767;28;20235;-47
2022/03/14 04:15:27;;;;;;;1.23;0.70;;;;;;;7.14;91.20;99364.03;5070367;28;20181;-49
2022/03/14 04:17:57;;;;;;;3.17;0.80;;;;;;;7.13;88.74;99358.00;5070656;28;20203;-48
2022/03/14 04:20:25;;;;;;;3.33;0.80;;;;;;;7.18;87.94;99362.84;5071011;28;20672;-47
2022/03/14 04:22:53;;;;;;;1.67;0.80;;;;;;;7.20;88.37;99367.03;5070241;28;20177;-46
2022/03/14 04:25:20;;;;;;;5.43;0.60;;;;;;;7.15;88.52;99376.06;5070177;28;20193;-51
2022/03/14 04:27:47;;;;;;;4.23;0.60;;;;;;;7.15;87.54;99389.03;5068709;28;20249;-47
2022/03/14 04:30:16;;;;;;;7.17;1.07;;;;;;;7.16;83.99;99403.69;5067820;28;20207;-47
2022/03/14 04:32:44;;;;;;;4.07;1.00;;;;;;;7.30;83.41;99397.53;5070425;28;20203;-47
2022/03/14 04:35:12;;;;;;;7.93;1.43;;;;;;;7.23;85.29;99400.56;5070199;28;20196;-47
2022/03/14 04:37:40;;;;;;;4.53;0.90;;;;;;;7.18;85.46;99405.25;5070188;28;20185;-47
2022/03/14 04:40:11;;;;;;;4.93;0.93;;;;;;;7.21;85.41;99420.59;5070166;28;20225;-48
2022/03/14 04:42:38;;;;;;;7.30;1.00;;;;;;;7.17;86.12;99420.91;5070172;28;20361;-50
2022/03/14 04:45:05;;;;;;;3.63;1.10;;;;;;;7.15;86.44;99423.63;5069879;28;20238;-48
2022/03/14 04:47:33;;;;;;;3.37;1.00;;;;;;;7.12;86.54;99429.06;5070314;28;20301;-50
2022/03/14 04:50:00;;;;;;;2.40;0.90;;;;;;;7.11;85.85;99424.78;5068886;28;20661;-47
2022/03/14 04:52:28;;;;;;;3.03;1.00;;;;;;;7.13;85.17;99424.66;5070123;28;20207;-47
2022/03/14 04:54:56;;;;;;;6.50;0.87;;;;;;;7.10;85.33;99438.72;5069897;28;20191;-48
2022/03/14 04:57:24;;;;;;;1.33;0.77;;;;;;;7.09;86.32;99445.66;5070591;28;20263;-46
2022/03/14 04:59:51;;;;;;;2.73;0.60;;;;;;;7.14;86.23;99450.53;5069694;28;20190;-47
2022/03/14 05:02:21;;;;;;;2.27;0.50;;;;;;;7.15;86.05;99447.00;5069356;28;20207;-50
2022/03/14 05:04:48;;;;;;;3.33;0.70;;;;;;;7.12;86.76;99451.56;5069189;28;20263;-46
2022/03/14 05:07:15;;;;;;;1.47;0.40;;;;;;;7.08;87.32;99459.56;5070310;28;20186;-55
2022/03/14 05:09:42;;;;;;;3.00;0.80;;;;;;;7.07;88.38;99475.28;5070165;28;20271;-48
2022/03/14 05:12:11;;;;;;;4.87;1.13;;;;;;;7.04;87.86;99471.09;5069815;28;20192;-51
2022/03/14 05:14:40;;;;;;;3.30;0.70;;;;;;;7.02;89.93;99482.56;5070793;28;20537;-50
2022/03/14 05:17:07;;;;;;;2.70;0.80;;;;;;;6.92;90.68;99487.53;5065498;28;20242;-47
2022/03/14 05:19:35;;;;;;;3.27;1.40;;;;;;;6.91;88.69;99491.91;5067345;28;20189;-49
2022/03/14 05:22:02;;;;;;;3.90;0.90;;;;;;;6.87;86.94;99492.25;5068749;28;20688;-47
2022/03/14 05:24:30;;;;;;;6.30;1.00;;;;;;;6.79;88.20;99482.38;5070737;28;20258;-49
2022/03/14 05:26:59;;;;;;;3.47;0.83;;;;;;;6.74;88.56;99481.84;5073989;28;20188;-47
2022/03/14 05:29:26;;;;;;;5.73;1.00;;;;;;;6.70;88.39;99478.66;5073823;28;20245;-49
2022/03/14 05:31:55;;;;;;;5.60;1.47;;;;;;;6.69;89.61;99487.38;5073329;28;20490;-50
2022/03/14 05:34:22;;;;;;;6.07;1.70;;;;;;;6.66;90.00;99485.00;5073359;28;20211;-49
2022/03/14 05:36:49;;;;;;;2.20;0.63;;;;;;;6.64;89.79;99492.84;5073696;28;20183;-47
2022/03/14 05:39:16;;;;;;;4.03;0.97;;;;;;;6.65;90.60;99498.91;5073727;28;20188;-46
2022/03/14 05:41:42;;;;;;;5.57;0.80;;;;;;;6.62;91.29;99497.31;5073370;28;20208;-49
2022/03/14 05:44:09;;;;;;;5.00;1.03;;;;;;;6.60;90.30;99496.59;5072764;28;20180;-47
2022/03/14 05:46:37;;;;;;;2.20;0.77;;;;;;;6.60;90.08;99498.38;5073851;28;20189;-46
2022/03/14 05:49:05;;;;;;;5.37;0.90;;;;;;;6.62;89.54;99505.09;5073542;28;20187;-47
2022/03/14 05:51:34;;;;;;;5.07;1.30;;;;;;;6.60;88.05;99508.75;5073541;28;20235;-48
2022/03/14 05:54:01;;;;;;;6.10;1.00;;;;;;;6.61;88.00;99515.59;5072793;28;20227;-47
2022/03/14 05:56:28;;;;;;;5.30;1.37;;;;;;;6.68;88.13;99519.44;5073715;28;20188;-47
2022/03/14 05:58:55;;;;;;;3.70;0.70;;;;;;;6.69;86.12;99523.69;5073145;28;20230;-47
2022/03/14 06:01:22;;;;;;;8.23;1.63;;;;;;;6.71;88.89;99526.19;5073347;28;20302;-47
2022/03/14 06:03:49;;;;;;;5.47;1.40;;;;;;;6.68;89.23;99535.00;5070556;28;20192;-47
2022/03/14 06:06:17;;;;;;;2.90;0.80;;;;;;;6.71;89.44;99523.56;5069268;28;20184;-49
2022/03/14 06:08:44;;;;;;;3.90;0.73;;;;;;;6.75;87.13;99532.81;5067673;28;20193;-48
2022/03/14 06:11:11;;;;;;;3.33;0.80;;;;;;;6.81;87.71;99552.34;5072574;28;20211;-48
2022/03/14 06:13:40;;;;;;;3.70;0.90;;;;;;;6.80;87.89;99551.50;5072572;28;20210;-47
2022/03/14 06:16:07;;;;;;;2.03;0.90;;;;;;;6.87;86.89;99546.75;5072996;28;20231;-50
2022/03/14 06:18:33;;;;;;;3.07;0.70;;;;;;;6.91;86.00;99554.19;5066937;28;20217;-48
2022/03/14 06:21:00;;;;;;;5.20;1.00;;;;;;;6.94;85.81;99556.59;5065718;28;20209;-50
2022/03/14 06:23:29;;;;;;;2.93;0.90;;;;;;;6.98;84.86;99564.16;5072449;28;20688;-47
2022/03/14 06:25:56;;;;;;;10.70;3.97;;;;;;;7.03;85.46;99564.69;5071422;28;20185;-48
2022/03/14 06:28:23;;;;;;;5.60;1.30;;;;;;;7.08;84.04;99576.41;5072612;28;20189;-48
2022/03/14 06:30:51;;;;;;;7.87;2.00;;;;;;;7.12;82.81;99579.63;5072681;28;20215;-50
2022/03/14 06:33:18;;;;;;;26.90;11.27;;;;;;;7.11;83.17;99580.56;5072770;28;20672;-47
2022/03/14 06:35:46;;;;;;;5.53;1.17;;;;;;;7.24;80.04;99586.59;5071758;28;20196;-47
2022/03/14 06:38:12;;;;;;;8.73;2.80;;;;;;;7.19;81.77;99593.88;5072202;28;20250;-48
2022/03/14 06:40:41;;;;;;;19.50;9.33;;;;;;;7.19;79.63;99586.06;5072449;28;20220;-48
2022/03/14 06:43:11;;;;;;;7.90;3.57;;;;;;;7.27;81.68;99585.53;5072230;28;20237;-47
2022/03/14 06:45:39;;;;;;;6.30;1.67;;;;;;;7.31;81.41;99586.16;5072183;28;20200;-47
2022/03/14 06:48:07;;;;;;;3.53;0.90;;;;;;;7.34;81.47;99596.34;5072579;28;20207;-48
2022/03/14 06:50:36;;;;;;;12.23;1.67;;;;;;;7.39;80.96;99592.47;5071918;28;20251;-47
2022/03/14 06:53:03;;;;;;;4.87;0.90;;;;;;;7.42;79.94;99588.81;5066684;28;20227;-47
2022/03/14 06:55:30;;;;;;;6.30;1.60;;;;;;;7.43;80.25;99598.28;5070820;28;20262;-49
2022/03/14 06:57:59;;;;;;;4.37;1.00;;;;;;;7.37;80.28;99603.94;5071532;28;20195;-47
2022/03/14 07:00:27;;;;;;;3.50;1.73;;;;;;;7.33;81.19;99605.06;5071915;28;20209;-49
2022/03/14 07:02:55;;;;;;;4.23;1.47;;;;;;;7.45;80.17;99611.19;5064286;28;20196;-48
2022/03/14 07:05:24;;;;;;;2.77;0.87;;;;;;;7.37;79.64;99620.31;5068821;28;20189;-48
2022/03/14 07:07:50;;;;;;;4.57;1.00;;;;;;;7.46;78.79;99615.44;5071622;28;20231;-48
2022/03/14 07:10:19;;;;;;;2.40;0.80;;;;;;;7.58;79.80;99621.53;5071788;28;20577;-51
2022/03/14 07:12:48;;;;;;;3.80;0.90;;;;;;;7.66;77.72;99614.03;5070324;28;20673;-48
2022/03/14 07:15:21;;;;;;;7.67;2.67;;;;;;;7.73;76.90;99623.06;5071406;28;20177;-48
2022/03/14 07:17:50;;;;;;;3.50;0.80;;;;;;;7.83;74.42;99624.06;5072344;28;20218;-49
2022/03/14 07:20:18;;;;;;;5.73;2.00;;;;;;;7.87;74.58;99642.91;5071500;28;20231;-48
2022/03/14 07:22:49;;;;;;;3.63;1.20;;;;;;;7.91;74.64;99643.50;5071499;28;20192;-49
2022/03/14 07:25:19;;;;;;;3.63;1.20;;;;;;;7.99;74.20;99649.00;5071320;28;20199;-49
2022/03/14 07:27:46;;;;;;;5.60;2.37;;;;;;;8.06;74.68;99652.81;5071630;28;20204;-48
2022/03/14 07:30:14;;;;;;;4.67;1.80;;;;;;;8.21;72.01;99652.66;5071209;28;20213;-51
2022/03/14 07:32:42;;;;;;;6.20;1.10;;;;;;;8.27;71.23;99658.25;5071214;28;20189;-49
2022/03/14 07:35:10;;;;;;;3.83;1.00;;;;;;;8.25;70.50;99673.13;5071095;28;20211;-48
2022/03/14 07:37:38;;;;;;;5.83;0.73;;;;;;;8.33;70.61;99675.19;5071545;28;20211;-49
2022/03/14 07:40:07;;;;;;;6.70;1.10;;;;;;;8.40;67.55;99672.97;5069821;28;20275;-49
2022/03/14 07:42:38;;;;;;;1.67;0.80;;;;;;;8.37;70.86;99681.00;5070945;28;20255;-48
2022/03/14 07:45:07;;;;;;;6.13;1.30;;;;;;;8.31;69.35;99679.69;5070742;28;20730;-48
2022/03/14 07:47:34;;;;;;;2.77;0.90;;;;;;;8.39;69.38;99687.75;5071337;28;20275;-52
2022/03/14 07:50:02;;;;;;;4.03;1.40;;;;;;;8.37;70.03;99705.25;5071287;28;20187;-49
2022/03/14 07:52:28;;;;;;;4.17;0.93;;;;;;;8.37;70.37;99700.06;5066184;28;20198;-48
2022/03/14 07:54:55;;;;;;;3.40;0.90;;;;;;;8.40;68.48;99699.00;5063232;28;20296;-51
2022/03/14 07:57:22;;;;;;;2.70;0.80;;;;;;;8.52;68.09;99700.75;5067847;28;20210;-51
2022/03/14 07:59:51;;;;;;;6.13;0.87;;;;;;;8.60;69.15;99687.16;5071411;28;20186;-52
2022/03/14 08:02:18;;;;;;;5.23;0.70;;;;;;;8.75;66.85;99686.97;5070816;28;20736;-49
2022/03/14 08:04:45;;;;;;;5.33;0.93;;;;;;;8.73;68.14;99688.88;5070788;28;20186;-49
2022/03/14 08:07:14;;;;;;;3.83;0.60;;;;;;;8.82;67.91;99696.00;5070885;28;20197;-49
2022/03/14 08:09:40;;;;;;;2.23;0.60;;;;;;;8.81;67.51;99692.59;5070899;28;20223;-49
2022/03/14 08:12:12;;;;;;;2.40;0.70;;;;;;;9.01;66.92;99701.50;5068152;28;20663;-48
2022/03/14 08:14:38;;;;;;;7.30;1.10;;;;;;;8.98;65.16;99701.75;5069295;28;20218;-52
2022/03/14 08:17:05;;;;;;;3.03;0.90;;;;;;;8.99;64.77;99708.59;5068458;28;20185;-49
2022/03/14 08:19:32;;;;;;;5.20;1.00;;;;;;;9.01;64.75;99704.13;5068611;28;20189;-49
2022/03/14 08:22:00;;;;;;;3.60;0.80;;;;;;;9.19;64.74;99715.88;5070515;28;20273;-49
2022/03/14 08:24:28;;;;;;;3.10;0.87;;;;;;;9.47;63.57;99709.44;5070214;28;20182;-49
2022/03/14 08:26:55;;;;;;;5.57;0.97;;;;;;;9.39;63.87;99704.78;5070809;28;20194;-51
2022/03/14 08:29:22;;;;;;;3.33;0.93;;;;;;;9.22;63.20;99711.28;5070638;28;20558;-49
2022/03/14 08:31:50;;;;;;;4.83;1.03;;;;;;;9.18;63.32;99715.06;5070432;28;20210;-49
2022/03/14 08:34:17;;;;;;;5.03;1.00;;;;;;;9.08;65.09;99719.28;5069696;28;20446;-49
2022/03/14 08:36:44;;;;;;;5.97;0.77;;;;;;;8.95;65.74;99714.97;5070656;28;20198;-51
2022/03/14 08:39:11;;;;;;;4.63;1.00;;;;;;;9.06;66.16;99724.59;5068146;28;20181;-50
2022/03/14 08:41:40;;;;;;;4.60;0.90;;;;;;;8.99;66.06;99726.84;5068779;28;20223;-52
2022/03/14 08:44:08;;;;;;;3.63;0.90;;;;;;;8.95;64.27;99730.59;5068024;28;20198;-51
2022/03/14 08:46:38;;;;;;;4.20;0.77;;;;;;;9.05;65.83;99719.50;5066283;28;20199;-50
2022/03/14 08:49:04;;;;;;;3.67;0.93;;;;;;;9.07;66.30;99717.63;5066022;28;20201;-52
2022/03/14 08:51:31;;;;;;;4.73;0.70;;;;;;;8.99;66.08;99721.63;5070016;28;20211;-50
2022/03/14 08:53:58;;;;;;;4.00;0.80;;;;;;;9.01;65.25;99724.94;5069415;28;20216;-49
2022/03/14 08:56:28;;;;;;;4.17;0.67;;;;;;;8.94;65.14;99731.56;5070356;28;20268;-52
2022/03/14 08:58:56;;;;;;;5.23;1.00;;;;;;;8.93;65.28;99721.25;5070443;28;20189;-49
2022/03/14 09:01:23;;;;;;;5.43;0.93;;;;;;;8.94;64.76;99718.53;5070323;28;20279;-51
2022/03/14 09:03:50;;;;;;;4.03;1.30;;;;;;;8.95;65.53;99704.56;5070144;28;20175;-51
2022/03/14 09:06:18;;;;;;;4.20;1.00;;;;;;;9.04;66.71;99716.06;5069799;28;20202;-52
2022/03/14 09:08:44;;;;;;;4.10;0.80;;;;;;;9.11;66.84;99721.66;5070514;28;20218;-52
2022/03/14 09:11:11;;;;;;;3.30;0.77;;;;;;;9.27;64.89;99723.94;5070276;28;20214;-49
2022/03/14 09:13:39;;;;;;;4.43;0.83;;;;;;;9.14;63.51;99719.66;5070264;28;20178;-51
2022/03/14 09:16:08;;;;;;;3.93;1.20;;;;;;;9.20;63.41;99717.53;5069540;28;20201;-51
2022/03/14 09:18:36;;;;;;;4.93;0.80;;;;;;;9.19;63.87;99732.34;5068904;28;20198;-50
2022/03/14 09:21:03;;;;;;;4.73;0.90;;;;;;;9.31;63.53;99730.59;5066865;28;20213;-53
2022/03/14 09:23:30;;;;;;;4.60;1.10;;;;;;;9.29;64.04;99733.31;5062811;28;20189;-49
2022/03/14 09:25:57;;;;;;;6.07;1.20;;;;;;;9.35;62.61;99741.63;5069550;28;20195;-52
2022/03/14 09:28:25;;;;;;;5.30;1.23;;;;;;;9.41;61.89;99752.41;5065552;28;20196;-49
2022/03/14 09:30:52;;;;;;;4.27;1.00;;;;;;;9.35;62.20;99749.44;5068175;28;20301;-48
2022/03/14 09:33:21;;;;;;;5.15;1.20;;;;;;;9.45;60.79;99759.03;5061879;28;20434;-49
2022/03/14 09:35:48;;;;;;;8.40;2.20;;;;;;;9.52;63.30;99759.44;5073753;28;20280;-49
2022/03/14 09:38:17;;;;;;;4.93;1.10;;;;;;;9.59;62.04;99763.19;5060134;28;20204;-50
2022/03/14 09:40:45;;;;;;;4.37;1.00;;;;;;;9.70;61.31;99766.78;5061582;28;20226;-50
2022/03/14 09:43:15;;;;;;;4.37;0.87;;;;;;;9.71;63.56;99766.66;5059653;28;20183;-50
2022/03/14 09:45:46;;;;;;;8.03;1.20;;;;;;;9.72;61.66;99764.88;5058414;28;20255;-51
2022/03/14 09:48:15;;;;;;;7.03;1.23;;;;;;;9.70;61.85;99774.59;5057793;28;20191;-52
2022/03/14 09:50:45;;;;;;;4.37;1.03;;;;;;;9.85;61.66;99776.03;5055881;28;20229;-48
2022/03/14 09:53:14;;;;;;;3.47;0.90;;;;;;;9.88;60.43;99781.00;5057874;28;20194;-50
2022/03/14 09:55:43;;;;;;;3.67;0.90;;;;;;;9.88;61.18;99775.78;5055042;28;20245;-49
2022/03/14 09:58:11;;;;;;;4.70;1.10;;;;;;;9.95;62.58;99786.59;5055369;28;20272;-51
2022/03/14 10:00:38;;;;;;;7.80;1.33;;;;;;;10.01;61.51;99787.91;5065684;28;20230;-50
2022/03/14 10:03:05;;;;;;;4.50;1.03;;;;;;;10.04;61.98;99785.91;5061683;28;20213;-51
2022/03/14 10:05:33;;;;;;;5.13;1.50;;;;;;;10.04;59.46;99795.50;5060206;28;20680;-49
2022/03/14 10:08:01;;;;;;;4.63;1.90;;;;;;;10.10;60.32;99792.41;5059406;28;20190;-49
2022/03/14 10:10:28;;;;;;;3.40;0.80;;;;;;;10.15;59.47;99797.25;5058964;28;20259;-53
2022/03/14 10:12:57;;;;;;;5.67;1.00;;;;;;;10.18;59.83;99795.25;5058524;28;20187;-52
2022/03/14 10:15:25;;;;;;;3.73;0.90;;;;;;;10.29;59.56;99794.41;5058689;28;20302;-49
2022/03/14 10:17:53;;;;;;;5.93;0.90;;;;;;;10.35;58.00;99793.09;5060312;28;20190;-49
2022/03/14 10:20:20;;;;;;;7.77;0.97;;;;;;;10.42;58.69;99799.53;5056410;28;20224;-50
2022/03/14 10:22:47;;;;;;;3.10;0.70;;;;;;;10.61;59.82;99805.88;5058503;28;20193;-50
2022/03/14 10:25:18;;;;;;;4.47;1.13;;;;;;;10.68;54.89;99806.25;5059807;28;20187;-49
2022/03/14 10:27:46;;;;;;;4.60;0.90;;;;;;;10.71;56.80;99811.22;5059282;28;20210;-49
2022/03/14 10:30:25;;;;;;;2.43;0.73;;;;;;;10.71;56.17;99800.78;5057933;28;20655;-50
2022/03/14 10:32:58;;;;;;;7.47;1.20;;;;;;;10.86;56.64;99796.94;5058008;28;20196;-51
2022/03/14 10:35:25;;;;;;;2.27;0.70;;;;;;;10.88;53.25;99807.25;5058587;28;20197;-50
2022/03/14 10:37:59;;;;;;;2.10;0.60;;;;;;;11.09;53.11;99809.94;5060254;28;20198;-50
2022/03/14 10:40:32;;;;;;;3.97;1.00;;;;;;;11.34;52.60;99815.75;5059653;28;20226;-52
2022/03/14 10:42:59;;;;;;;3.13;0.80;;;;;;;11.70;49.64;99811.03;5059769;28;20190;-50
2022/03/14 10:45:26;;;;;;;7.53;0.93;;;;;;;11.78;52.01;99818.22;5058586;28;20734;-51
2022/03/14 10:47:56;;;;;;;4.13;1.17;;;;;;;12.06;52.38;99826.38;5059675;28;20552;-49
2022/03/14 10:50:35;;;;;;;5.83;1.30;;;;;;;11.96;49.42;99814.03;5058513;28;20214;-48
2022/03/14 10:53:08;;;;;;;4.70;0.80;;;;;;;11.81;50.20;99810.09;5057803;28;20200;-47
2022/03/14 10:55:41;;;;;;;3.13;1.00;;;;;;;11.82;48.54;99812.63;5059454;28;20303;-49
2022/03/14 10:58:14;;;;;;;4.00;0.87;;;;;;;11.61;51.67;99810.03;5048906;28;20187;-51
2022/03/14 11:00:51;;;;;;;3.70;0.80;;;;;;;11.86;48.57;99817.59;5049752;28;20205;-48
2022/03/14 11:03:22;;;;;;;2.80;0.60;;;;;;;11.81;49.59;99810.97;5049774;28;20187;-49
2022/03/14 11:05:49;;;;;;;6.97;0.80;;;;;;;11.65;50.18;99795.72;5049498;28;20269;-49
2022/03/14 11:08:30;;;;;;;4.20;0.93;;;;;;;11.60;49.78;99800.53;5049740;28;20242;-49
2022/03/14 11:11:00;;;;;;;3.63;0.80;;;;;;;11.76;50.29;99801.81;5049906;28;20271;-49
2022/03/14 11:13:27;;;;;;;2.13;0.60;;;;;;;11.89;50.19;99799.00;5049165;28;20234;-49
2022/03/14 11:15:56;;;;;;;3.40;0.80;;;;;;;11.90;52.08;99798.06;5049257;28;20207;-49
2022/03/14 11:18:23;;;;;;;5.00;1.30;;;;;;;11.66;51.69;99802.59;5049561;28;20190;-49
2022/03/14 11:20:51;;;;;;;5.70;1.10;;;;;;;11.65;51.44;99797.50;5049486;28;20215;-49
2022/03/14 11:23:19;;;;;;;4.93;1.17;;;;;;;11.43;51.07;99808.94;5049060;28;20562;-49
2022/03/14 11:25:46;;;;;;;3.57;0.80;;;;;;;11.47;52.05;99812.97;5048974;28;20186;-50
2022/03/14 11:28:17;;;;;;;4.40;1.20;;;;;;;11.40;52.55;99817.84;5049293;28;20197;-51
2022/03/14 11:30:47;;;;;;;3.23;1.17;;;;;;;11.34;51.30;99806.13;5049725;28;20222;-49
2022/03/14 11:33:15;;;;;;;4.60;0.70;;;;;;;11.59;51.67;99806.72;5049506;28;20203;-50
2022/03/14 11:35:43;;;;;;;2.33;0.80;;;;;;;11.89;51.45;99791.97;5049028;28;20222;-49
2022/03/14 11:38:11;;;;;;;4.87;0.80;;;;;;;12.04;50.60;99802.13;5049293;28;20184;-56
2022/03/14 11:40:38;;;;;;;4.00;0.90;;;;;;;12.02;49.86;99791.81;5047624;28;20695;-48
2022/03/14 11:43:06;;;;;;;5.30;1.10;;;;;;;12.16;49.11;99801.09;5048800;28;20180;-49
2022/03/14 11:45:35;;;;;;;3.60;0.80;;;;;;;12.56;48.33;99807.25;5048569;28;20192;-51